Time;durP1;ratioP1;P1;durP2;ratioP2;P2;SDS_P1;SDS_P2;PMS_P1;PMS_P2;Temp;Humidity;BMP_temperature;BMP_pressure;BME280_temperature;BME280_humidity;BME280_pressure;Samples;Min_cycle;Max_cycle;Signal;HPM_P1;HPM_P2
2023/11/10 00:01:19;;;;;;;3.00;0.60;;;;;;;;;;5073621;28;20273;-85
2023/11/10 00:03:44;;;;;;;4.10;0.97;;;;;;;;;;5073777;28;20024;-85
2023/11/10 00:06:10;;;;;;;0.60;0.40;;;;;;;;;;5073588;28;20253;-85
2023/11/10 00:08:35;;;;;;;2.55;0.50;;;;;;;;;;5073276;28;20074;-85
2023/11/10 00:11:00;;;;;;;4.03;0.85;;;;;;;;;;5073733;28;20052;-85
2023/11/10 00:13:26;;;;;;;0.82;0.40;;;;;;;;;;5055437;28;20108;-85
2023/11/10 00:15:51;;;;;;;3.38;0.73;;;;;;;;;;5055620;28;20391;-85
2023/11/10 00:18:16;;;;;;;1.27;0.50;;;;;;;;;;5055303;28;20028;-85
2023/11/10 00:20:41;;;;;;;0.73;0.57;;;;;;;;;;5073348;28;20272;-85
2023/11/10 00:23:08;;;;;;;4.50;0.90;;;;;;;;;;5073454;28;20392;-86
2023/11/10 00:25:34;;;;;;;2.40;0.52;;;;;;;;;;5073019;28;20515;-85
2023/11/10 00:28:01;;;;;;;1.77;0.55;;;;;;;;;;5073417;28;20045;-85
2023/11/10 00:30:28;;;;;;;4.07;0.57;;;;;;;;;;5073286;28;20012;-85
2023/11/10 00:32:53;;;;;;;1.38;0.63;;;;;;;;;;5055163;28;20024;-85
2023/11/10 00:35:18;;;;;;;0.80;0.47;;;;;;;;;;5073175;28;20021;-85
2023/11/10 00:37:43;;;;;;;1.67;0.83;;;;;;;;;;5073063;28;20335;-85
2023/11/10 00:40:09;;;;;;;7.73;0.50;;;;;;;;;;5073264;28;20472;-85
2023/11/10 00:42:34;;;;;;;5.18;0.70;;;;;;;;;;5055179;28;20888;-85
2023/11/10 00:44:59;;;;;;;5.00;0.80;;;;;;;;;;5073002;28;20021;-85
2023/11/10 00:47:25;;;;;;;2.67;0.80;;;;;;;;;;5073295;28;20095;-85
2023/11/10 00:49:50;;;;;;;1.75;0.63;;;;;;;;;;5054922;28;20256;-85
2023/11/10 00:52:16;;;;;;;4.43;1.13;;;;;;;;;;5072889;28;20027;-85
2023/11/10 00:54:41;;;;;;;4.05;0.85;;;;;;;;;;5055013;28;20031;-85
2023/11/10 00:57:06;;;;;;;1.90;0.63;;;;;;;;;;5072861;28;20024;-85
2023/11/10 00:59:32;;;;;;;2.87;1.00;;;;;;;;;;5054879;28;20261;-85
2023/11/10 01:01:57;;;;;;;3.53;0.73;;;;;;;;;;5054752;28;20289;-85
2023/11/10 01:04:22;;;;;;;2.43;1.30;;;;;;;;;;5072872;28;20485;-85
2023/11/10 01:06:47;;;;;;;4.53;1.55;;;;;;;;;;5054855;28;20648;-85
2023/11/10 01:09:13;;;;;;;4.20;1.13;;;;;;;;;;5072527;28;20095;-85
2023/11/10 01:11:38;;;;;;;3.42;1.23;;;;;;;;;;5072778;28;20035;-85
2023/11/10 01:14:04;;;;;;;4.55;1.00;;;;;;;;;;5072586;28;20514;-85
2023/11/10 01:16:29;;;;;;;2.72;0.80;;;;;;;;;;5072804;28;20039;-85
2023/11/10 01:18:55;;;;;;;3.60;1.38;;;;;;;;;;5072547;28;20108;-85
2023/11/10 01:21:21;;;;;;;2.28;0.73;;;;;;;;;;5072932;28;20381;-85
2023/11/10 01:23:47;;;;;;;2.00;0.68;;;;;;;;;;5072668;28;20019;-85
2023/11/10 01:26:12;;;;;;;4.18;0.80;;;;;;;;;;5072554;28;20033;-85
2023/11/10 01:28:37;;;;;;;2.38;0.98;;;;;;;;;;5072562;28;20017;-85
2023/11/10 01:31:03;;;;;;;1.95;0.68;;;;;;;;;;5072494;28;20480;-85
2023/11/10 01:33:28;;;;;;;4.38;1.10;;;;;;;;;;5073040;28;20021;-85
2023/11/10 01:35:54;;;;;;;4.47;0.73;;;;;;;;;;5054251;28;20025;-85
2023/11/10 01:38:19;;;;;;;1.30;0.50;;;;;;;;;;5072456;28;20369;-85
2023/11/10 01:40:44;;;;;;;2.40;0.80;;;;;;;;;;5072479;28;20021;-85
2023/11/10 01:43:16;;;;;;;4.13;0.80;;;;;;;;;;5072340;28;20092;-85
2023/11/10 01:45:41;;;;;;;1.55;0.57;;;;;;;;;;5054558;28;20469;-85
2023/11/10 01:48:08;;;;;;;4.30;0.60;;;;;;;;;;5054263;28;20016;-85
2023/11/10 01:50:33;;;;;;;2.78;0.60;;;;;;;;;;5072471;28;20009;-86
2023/11/10 01:52:59;;;;;;;2.13;0.45;;;;;;;;;;5072539;28;20017;-85
2023/11/10 01:55:26;;;;;;;2.65;0.50;;;;;;;;;;5054520;28;20048;-86
2023/11/10 01:57:51;;;;;;;3.92;0.73;;;;;;;;;;5072312;28;20047;-85
2023/11/10 02:00:19;;;;;;;3.50;0.80;;;;;;;;;;5054247;28;20024;-85
2023/11/10 02:02:45;;;;;;;4.00;0.60;;;;;;;;;;5072212;28;20305;-85
2023/11/10 02:05:11;;;;;;;5.00;0.80;;;;;;;;;;5058117;28;20066;-86
2023/11/10 02:07:36;;;;;;;2.70;0.77;;;;;;;;;;5075724;28;20044;-85
2023/11/10 02:10:01;;;;;;;3.25;0.57;;;;;;;;;;5058107;28;20130;-85
2023/11/10 02:12:27;;;;;;;2.67;0.60;;;;;;;;;;5058028;28;20028;-85
2023/11/10 02:14:52;;;;;;;2.13;0.57;;;;;;;;;;5057790;28;20336;-85
2023/11/10 02:17:17;;;;;;;3.58;0.50;;;;;;;;;;5057819;28;20301;-85
2023/11/10 02:19:43;;;;;;;2.90;0.45;;;;;;;;;;5057662;28;20032;-84
2023/11/10 02:22:08;;;;;;;6.95;1.13;;;;;;;;;;5075745;28;20017;-85
2023/11/10 02:24:33;;;;;;;2.13;0.53;;;;;;;;;;5075628;28;20397;-86
2023/11/10 02:26:59;;;;;;;4.13;0.40;;;;;;;;;;5075544;28;20257;-85
2023/11/10 02:29:24;;;;;;;2.73;0.93;;;;;;;;;;5057526;28;20024;-85
2023/11/10 02:31:50;;;;;;;1.97;0.50;;;;;;;;;;5057608;28;20269;-85
2023/11/10 02:34:15;;;;;;;1.08;0.43;;;;;;;;;;5075176;28;20674;-84
2023/11/10 02:36:41;;;;;;;2.83;0.85;;;;;;;;;;5057509;28;20048;-85
2023/11/10 02:39:06;;;;;;;4.05;0.60;;;;;;;;;;5075476;28;20025;-85
2023/11/10 02:41:32;;;;;;;2.75;0.70;;;;;;;;;;5075148;28;20051;-85
2023/11/10 02:43:57;;;;;;;1.95;0.63;;;;;;;;;;5057414;28;20517;-85
2023/11/10 02:46:23;;;;;;;1.70;0.77;;;;;;;;;;5057300;28;20392;-85
2023/11/10 02:48:49;;;;;;;7.18;1.00;;;;;;;;;;5075018;28;20268;-85
2023/11/10 02:51:14;;;;;;;4.18;1.02;;;;;;;;;;5057227;28;20028;-85
2023/11/10 02:53:39;;;;;;;3.73;0.87;;;;;;;;;;5057072;28;20028;-85
2023/11/10 02:56:06;;;;;;;1.50;0.70;;;;;;;;;;5075030;28;20265;-85
2023/11/10 02:58:32;;;;;;;3.78;0.80;;;;;;;;;;5075119;28;20511;-85
2023/11/10 03:00:58;;;;;;;3.20;0.80;;;;;;;;;;5056750;28;20099;-85
2023/11/10 03:03:23;;;;;;;3.35;1.20;;;;;;;;;;5057004;28;20025;-85
2023/11/10 03:05:48;;;;;;;4.50;1.07;;;;;;;;;;5056690;28;20107;-85
2023/11/10 03:08:13;;;;;;;6.93;0.95;;;;;;;;;;5057013;28;20242;-86
2023/11/10 03:10:39;;;;;;;5.40;1.08;;;;;;;;;;5056872;28;20016;-85
2023/11/10 03:13:04;;;;;;;3.93;0.90;;;;;;;;;;5056629;28;20044;-85
2023/11/10 03:15:29;;;;;;;4.25;1.10;;;;;;;;;;5074567;28;20737;-85
2023/11/10 03:17:55;;;;;;;3.92;0.82;;;;;;;;;;5056708;28;20025;-85
2023/11/10 03:20:20;;;;;;;4.47;0.82;;;;;;;;;;5056398;28;20052;-85
2023/11/10 03:22:46;;;;;;;3.43;0.80;;;;;;;;;;5056360;28;20017;-85
2023/11/10 03:25:11;;;;;;;5.38;1.45;;;;;;;;;;5074414;28;20045;-85
2023/11/10 03:27:36;;;;;;;2.75;1.13;;;;;;;;;;5074364;28;20089;-85
2023/11/10 03:30:02;;;;;;;2.10;0.75;;;;;;;;;;5056612;28;20035;-85
2023/11/10 03:32:27;;;;;;;3.63;0.90;;;;;;;;;;5056232;28;20020;-84
2023/11/10 03:34:53;;;;;;;5.88;0.93;;;;;;;;;;5074117;28;20021;-85
2023/11/10 03:37:19;;;;;;;6.40;0.70;;;;;;;;;;5056411;28;20029;-85
2023/11/10 03:39:44;;;;;;;3.40;0.70;;;;;;;;;;5056147;28;20261;-85
2023/11/10 03:42:10;;;;;;;3.90;0.63;;;;;;;;;;5056193;28;20392;-85
2023/11/10 03:44:36;;;;;;;4.32;0.63;;;;;;;;;;5073903;28;20082;-84
2023/11/10 03:47:01;;;;;;;5.07;0.68;;;;;;;;;;5074171;28;20039;-85
2023/11/10 03:49:26;;;;;;;3.30;0.55;;;;;;;;;;5073976;28;20512;-85
2023/11/10 03:51:52;;;;;;;3.10;0.80;;;;;;;;;;5065633;28;20085;-85
2023/11/10 03:54:18;;;;;;;5.10;0.82;;;;;;;;;;5055451;28;20029;-85
2023/11/10 03:56:44;;;;;;;3.15;0.80;;;;;;;;;;5073752;28;20047;-85
2023/11/10 03:59:09;;;;;;;2.92;0.80;;;;;;;;;;5056002;28;20484;-85
2023/11/10 04:01:35;;;;;;;2.53;0.60;;;;;;;;;;5073752;28;20069;-85
2023/11/10 04:04:00;;;;;;;1.83;0.55;;;;;;;;;;5055699;28;20257;-84
2023/11/10 04:06:26;;;;;;;0.77;0.35;;;;;;;;;;5073757;28;20082;-85
2023/11/10 04:08:51;;;;;;;1.50;0.47;;;;;;;;;;5055641;28;20024;-84
2023/11/10 04:11:16;;;;;;;2.45;0.43;;;;;;;;;;5055774;28;20472;-85
2023/11/10 04:13:41;;;;;;;2.93;0.50;;;;;;;;;;5073647;28;20040;-85
2023/11/10 04:16:15;;;;;;;5.63;0.57;;;;;;;;;;5055394;28;20257;-85
2023/11/10 04:18:40;;;;;;;3.05;0.60;;;;;;;;;;5073437;28;20621;-85
2023/11/10 04:21:05;;;;;;;2.37;0.50;;;;;;;;;;5055546;28;20135;-85
2023/11/10 04:23:30;;;;;;;1.73;0.40;;;;;;;;;;5055204;28;20257;-85
2023/11/10 04:25:56;;;;;;;0.83;0.50;;;;;;;;;;5054744;28;20040;-85
2023/11/10 04:28:21;;;;;;;1.00;0.52;;;;;;;;;;5073298;28;20253;-85
2023/11/10 04:30:46;;;;;;;1.97;0.70;;;;;;;;;;5073209;28;20017;-85
2023/11/10 04:33:12;;;;;;;1.75;0.43;;;;;;;;;;5073397;28;20024;-85
2023/11/10 04:35:37;;;;;;;6.57;0.60;;;;;;;;;;5073051;28;20066;-85
2023/11/10 04:38:02;;;;;;;1.70;0.45;;;;;;;;;;5073206;28;20032;-85
2023/11/10 04:40:29;;;;;;;3.50;0.60;;;;;;;;;;5055387;28;20385;-85
2023/11/10 04:42:57;;;;;;;1.93;0.60;;;;;;;;;;5072790;28;20024;-85
2023/11/10 04:45:24;;;;;;;1.80;0.35;;;;;;;;;;5073052;28;20281;-85
2023/11/10 04:47:50;;;;;;;1.63;0.60;;;;;;;;;;5072867;28;20020;-85
2023/11/10 04:50:16;;;;;;;5.32;0.75;;;;;;;;;;5073133;28;20100;-85
2023/11/10 04:52:41;;;;;;;0.65;0.45;;;;;;;;;;5054916;28;20123;-85
2023/11/10 04:55:07;;;;;;;0.85;0.60;;;;;;;;;;5072971;28;20090;-84
2023/11/10 04:57:33;;;;;;;3.25;0.70;;;;;;;;;;5072994;28;20461;-85
2023/11/10 05:00:00;;;;;;;1.42;0.65;;;;;;;;;;5072932;28;20025;-84
2023/11/10 05:02:28;;;;;;;6.38;0.80;;;;;;;;;;5072756;28;20016;-84
2023/11/10 05:04:53;;;;;;;3.40;0.80;;;;;;;;;;5072834;28;20009;-85
2023/11/10 05:07:18;;;;;;;1.67;0.65;;;;;;;;;;5072886;28;20012;-84
2023/11/10 05:09:44;;;;;;;3.87;0.60;;;;;;;;;;5072857;28;20099;-85
2023/11/10 05:12:09;;;;;;;5.00;0.80;;;;;;;;;;5054723;28;20293;-84
2023/11/10 05:14:39;;;;;;;4.47;0.52;;;;;;;;;;5054347;28;20028;-85
2023/11/10 05:17:04;;;;;;;3.63;1.02;;;;;;;;;;5054665;28;20025;-84
2023/11/10 05:19:30;;;;;;;0.73;0.30;;;;;;;;;;5072801;28;20028;-84
2023/11/10 05:21:55;;;;;;;1.30;0.47;;;;;;;;;;5072489;28;20020;-84
2023/11/10 05:24:20;;;;;;;0.87;0.40;;;;;;;;;;5054222;28;20064;-84
2023/11/10 05:26:46;;;;;;;0.88;0.40;;;;;;;;;;5054600;28;20285;-85
2023/11/10 05:29:11;;;;;;;2.45;0.63;;;;;;;;;;5054490;28;20025;-85
2023/11/10 05:31:36;;;;;;;4.63;0.77;;;;;;;;;;5054309;28;20502;-86
2023/11/10 05:34:03;;;;;;;1.20;0.70;;;;;;;;;;5072475;28;20268;-82
2023/11/10 05:36:28;;;;;;;1.52;0.40;;;;;;;;;;5072293;28;20276;-83
2023/11/10 05:38:54;;;;;;;1.17;0.60;;;;;;;;;;5074816;28;20024;-82
2023/11/10 05:41:19;;;;;;;4.13;0.67;;;;;;;;;;5057710;28;20031;-82
2023/11/10 05:43:46;;;;;;;15.80;0.90;;;;;;;;;;5058268;28;20024;-82
2023/11/10 05:46:11;;;;;;;2.28;0.57;;;;;;;;;;5076395;28;20331;-82
2023/11/10 05:48:37;;;;;;;1.65;0.65;;;;;;;;;;5075684;28;20044;-82
2023/11/10 05:51:05;;;;;;;4.63;0.60;;;;;;;;;;5076439;28;20016;-82
2023/11/10 05:53:31;;;;;;;0.98;0.60;;;;;;;;;;5076217;28;20472;-82
2023/11/10 05:55:57;;;;;;;2.58;0.70;;;;;;;;;;5076610;28;20469;-82
2023/11/10 05:58:22;;;;;;;1.98;0.60;;;;;;;;;;5058620;28;20016;-82
2023/11/10 06:00:47;;;;;;;4.13;0.43;;;;;;;;;;5076410;28;20469;-82
2023/11/10 06:03:14;;;;;;;3.47;0.70;;;;;;;;;;5076526;28;20646;-82
2023/11/10 06:05:39;;;;;;;4.78;0.73;;;;;;;;;;5076386;28;20040;-82
2023/11/10 06:08:04;;;;;;;0.65;0.43;;;;;;;;;;5076422;28;20045;-82
2023/11/10 06:10:31;;;;;;;5.13;0.60;;;;;;;;;;5076319;28;20017;-82
2023/11/10 06:12:57;;;;;;;8.13;0.85;;;;;;;;;;5058365;28;20753;-82
2023/11/10 06:15:22;;;;;;;0.80;0.40;;;;;;;;;;5076344;28;20020;-82
2023/11/10 06:17:47;;;;;;;7.65;1.13;;;;;;;;;;5076208;28;20017;-82
2023/11/10 06:20:12;;;;;;;3.47;0.60;;;;;;;;;;5076212;28;20024;-82
2023/11/10 06:22:38;;;;;;;1.55;0.50;;;;;;;;;;5058103;28;20270;-82
2023/11/10 06:25:04;;;;;;;2.33;0.60;;;;;;;;;;5057992;28;20055;-82
2023/11/10 06:27:29;;;;;;;1.38;0.47;;;;;;;;;;5076056;28;20376;-82
2023/11/10 06:29:55;;;;;;;5.07;0.73;;;;;;;;;;5058018;28;20111;-82
2023/11/10 06:32:20;;;;;;;1.67;0.60;;;;;;;;;;5075935;28;20024;-82
2023/11/10 06:34:46;;;;;;;2.55;0.63;;;;;;;;;;5075812;28;20028;-82
2023/11/10 06:37:12;;;;;;;3.00;0.57;;;;;;;;;;5057922;28;20053;-82
2023/11/10 06:39:38;;;;;;;9.43;1.10;;;;;;;;;;5057844;28;20020;-82
2023/11/10 06:42:04;;;;;;;5.15;0.90;;;;;;;;;;5075645;28;20017;-82
2023/11/10 06:44:29;;;;;;;4.05;1.02;;;;;;;;;;5075741;28;20074;-82
2023/11/10 06:46:54;;;;;;;8.60;1.00;;;;;;;;;;5075678;28;20016;-82
2023/11/10 06:49:20;;;;;;;7.95;0.90;;;;;;;;;;5057003;28;20257;-82
2023/11/10 06:51:46;;;;;;;0.33;0.33;;;;;;;;;;5057681;28;20060;-82
2023/11/10 06:54:11;;;;;;;2.42;0.50;;;;;;;;;;5075521;28;20253;-82
2023/11/10 06:56:37;;;;;;;5.93;1.10;;;;;;;;;;5075503;28;20069;-82
2023/11/10 06:59:02;;;;;;;3.25;0.80;;;;;;;;;;5075465;28;20340;-82
2023/11/10 07:01:28;;;;;;;2.28;0.70;;;;;;;;;;5057421;28;20043;-82
2023/11/10 07:03:54;;;;;;;2.95;0.95;;;;;;;;;;5057498;28;20103;-82
2023/11/10 07:06:19;;;;;;;6.60;1.00;;;;;;;;;;5075310;28;20173;-82
2023/11/10 07:08:45;;;;;;;2.27;0.53;;;;;;;;;;5057304;28;20075;-82
2023/11/10 07:11:12;;;;;;;5.13;1.45;;;;;;;;;;5057314;28;20253;-82
2023/11/10 07:13:37;;;;;;;6.47;1.35;;;;;;;;;;5075227;28;20024;-82
2023/11/10 07:16:03;;;;;;;3.40;0.70;;;;;;;;;;5075228;28;20016;-82
2023/11/10 07:18:30;;;;;;;2.45;0.70;;;;;;;;;;5075017;28;20246;-82
2023/11/10 07:20:56;;;;;;;2.05;0.80;;;;;;;;;;5057000;28;20066;-82
2023/11/10 07:23:21;;;;;;;1.97;0.60;;;;;;;;;;5056984;28;20016;-82
2023/11/10 07:25:46;;;;;;;3.78;0.90;;;;;;;;;;5074793;28;20278;-82
2023/11/10 07:28:12;;;;;;;2.20;0.68;;;;;;;;;;5056961;28;20090;-82
2023/11/10 07:30:39;;;;;;;4.57;0.98;;;;;;;;;;5074869;28;20016;-82
2023/11/10 07:33:04;;;;;;;2.28;0.65;;;;;;;;;;5074871;28;20052;-82
2023/11/10 07:35:30;;;;;;;3.87;0.73;;;;;;;;;;5074735;28;20499;-82
2023/11/10 07:37:55;;;;;;;2.80;0.63;;;;;;;;;;5074640;28;20281;-82
2023/11/10 07:40:20;;;;;;;6.80;1.07;;;;;;;;;;5074711;28;20074;-82
2023/11/10 07:42:46;;;;;;;4.80;0.63;;;;;;;;;;5074598;28;20329;-82
2023/11/10 07:45:14;;;;;;;5.25;1.00;;;;;;;;;;5074588;28;20755;-82
2023/11/10 07:47:40;;;;;;;10.52;0.70;;;;;;;;;;5074504;28;20021;-82
2023/11/10 07:50:06;;;;;;;6.60;1.08;;;;;;;;;;5074445;28;20092;-82
2023/11/10 07:52:32;;;;;;;2.17;0.43;;;;;;;;;;5056432;28;20513;-82
2023/11/10 07:54:57;;;;;;;3.88;0.70;;;;;;;;;;5074389;28;20017;-82
2023/11/10 07:57:22;;;;;;;1.85;0.60;;;;;;;;;;5056390;28;20020;-82
2023/11/10 07:59:48;;;;;;;8.33;0.87;;;;;;;;;;5074255;28;20108;-82
2023/11/10 08:02:13;;;;;;;1.23;0.53;;;;;;;;;;5073397;28;20379;-82
2023/11/10 08:04:39;;;;;;;3.22;0.70;;;;;;;;;;5056177;28;20681;-82
2023/11/10 08:07:06;;;;;;;2.90;0.80;;;;;;;;;;5056128;28;20107;-82
2023/11/10 08:09:33;;;;;;;2.33;0.90;;;;;;;;;;5074162;28;20017;-82
2023/11/10 08:11:59;;;;;;;3.65;1.38;;;;;;;;;;5056078;28;20115;-82
2023/11/10 08:14:24;;;;;;;2.35;1.00;;;;;;;;;;5073965;28;20107;-82
2023/11/10 08:16:49;;;;;;;3.13;0.87;;;;;;;;;;5073939;28;20020;-82
2023/11/10 08:19:14;;;;;;;2.95;1.10;;;;;;;;;;5055911;28;20332;-82
2023/11/10 08:21:40;;;;;;;2.97;0.80;;;;;;;;;;5055867;28;20020;-82
2023/11/10 08:24:05;;;;;;;3.20;1.07;;;;;;;;;;5055653;28;20445;-82
2023/11/10 08:26:30;;;;;;;1.00;0.50;;;;;;;;;;5056020;28;20245;-82
2023/11/10 08:28:55;;;;;;;0.88;0.50;;;;;;;;;;5055825;28;20016;-82
2023/11/10 08:31:22;;;;;;;6.40;1.10;;;;;;;;;;5055766;28;20020;-82
2023/11/10 08:33:47;;;;;;;3.05;0.70;;;;;;;;;;5055969;28;20253;-82
2023/11/10 08:36:13;;;;;;;1.88;0.45;;;;;;;;;;5055613;28;20103;-82
2023/11/10 08:38:38;;;;;;;4.00;0.57;;;;;;;;;;5055651;28;20028;-82
2023/11/10 08:41:04;;;;;;;5.30;0.90;;;;;;;;;;5055502;28;20020;-82
2023/11/10 08:43:29;;;;;;;5.25;1.23;;;;;;;;;;5055541;28;20256;-82
2023/11/10 08:45:54;;;;;;;1.77;0.57;;;;;;;;;;5073470;28;20026;-82
2023/11/10 08:48:20;;;;;;;3.65;0.60;;;;;;;;;;5073441;28;20051;-82
2023/11/10 08:50:45;;;;;;;2.73;0.47;;;;;;;;;;5055444;28;20013;-83
2023/11/10 08:53:10;;;;;;;6.23;0.90;;;;;;;;;;5055441;28;20757;-82
2023/11/10 08:55:37;;;;;;;6.63;1.13;;;;;;;;;;5073333;28;20027;-82
2023/11/10 08:58:02;;;;;;;5.10;0.90;;;;;;;;;;5055360;28;20480;-82
2023/11/10 09:00:28;;;;;;;4.50;1.10;;;;;;;;;;5073316;28;20017;-82
2023/11/10 09:02:55;;;;;;;2.60;0.83;;;;;;;;;;5073224;28;20269;-82
2023/11/10 09:05:22;;;;;;;4.65;0.73;;;;;;;;;;5073320;28;20237;-80
2023/11/10 09:07:47;;;;;;;6.20;0.95;;;;;;;;;;5055265;28;20016;-80
2023/11/10 09:10:12;;;;;;;2.08;0.85;;;;;;;;;;5073267;28;20040;-80
2023/11/10 09:12:41;;;;;;;2.90;0.47;;;;;;;;;;5072953;28;20101;-80
2023/11/10 09:15:07;;;;;;;5.28;1.00;;;;;;;;;;5073209;28;20654;-80
2023/11/10 09:17:33;;;;;;;2.25;0.75;;;;;;;;;;5073286;28;20476;-80
2023/11/10 09:19:58;;;;;;;6.03;1.25;;;;;;;;;;5055240;28;20028;-80
2023/11/10 09:22:23;;;;;;;3.30;1.03;;;;;;;;;;5073058;28;20063;-80
2023/11/10 09:24:48;;;;;;;10.20;1.63;;;;;;;;;;5051575;28;20306;-80
2023/11/10 09:27:13;;;;;;;7.28;2.35;;;;;;;;;;5051706;28;20024;-80
2023/11/10 09:29:41;;;;;;;10.73;2.27;;;;;;;;;;5053009;28;20016;-80
2023/11/10 09:32:10;;;;;;;5.85;2.17;;;;;;;;;;5051694;28;20108;-80
2023/11/10 09:34:38;;;;;;;4.88;1.05;;;;;;;;;;5052891;28;20469;-80
2023/11/10 09:37:04;;;;;;;8.57;1.45;;;;;;;;;;5051660;28;20017;-80
2023/11/10 09:39:30;;;;;;;7.03;1.27;;;;;;;;;;5051635;28;20039;-80
2023/11/10 09:41:56;;;;;;;5.87;1.00;;;;;;;;;;5052784;28;20520;-80
2023/11/10 09:44:21;;;;;;;2.20;0.65;;;;;;;;;;5051603;28;20346;-80
2023/11/10 09:46:47;;;;;;;5.18;0.88;;;;;;;;;;5052850;28;20059;-79
2023/11/10 09:49:13;;;;;;;2.60;0.68;;;;;;;;;;5051545;28;20162;-79
2023/11/10 09:51:39;;;;;;;4.95;1.05;;;;;;;;;;5051577;28;20084;-80
2023/11/10 09:54:04;;;;;;;2.47;0.80;;;;;;;;;;5051519;28;20530;-80
2023/11/10 09:56:31;;;;;;;3.25;0.57;;;;;;;;;;5052798;28;20025;-80
2023/11/10 09:58:57;;;;;;;3.65;1.00;;;;;;;;;;5051428;28;20036;-80
2023/11/10 10:01:23;;;;;;;2.47;0.82;;;;;;;;;;5052601;28;20045;-80
2023/11/10 10:03:48;;;;;;;3.90;1.00;;;;;;;;;;5052632;28;20060;-80
2023/11/10 10:06:15;;;;;;;10.48;1.52;;;;;;;;;;5052670;28;20250;-80
2023/11/10 10:08:42;;;;;;;7.38;1.50;;;;;;;;;;5051312;28;20017;-80
2023/11/10 10:11:07;;;;;;;4.25;1.17;;;;;;;;;;5052631;28;20016;-79
2023/11/10 10:13:32;;;;;;;4.10;1.43;;;;;;;;;;5052617;28;20021;-79
2023/11/10 10:16:07;;;;;;;8.13;1.10;;;;;;;;;;5051279;28;20246;-80
2023/11/10 10:18:33;;;;;;;3.88;1.10;;;;;;;;;;5052612;28;20512;-80
2023/11/10 10:21:01;;;;;;;11.48;1.60;;;;;;;;;;5052415;28;20041;-80
2023/11/10 10:23:27;;;;;;;4.85;1.35;;;;;;;;;;5052479;28;20036;-79
2023/11/10 10:25:53;;;;;;;4.63;1.80;;;;;;;;;;5054422;28;20405;-79
2023/11/10 10:28:18;;;;;;;9.00;1.73;;;;;;;;;;5054761;28;20381;-79
2023/11/10 10:30:47;;;;;;;4.93;1.05;;;;;;;;;;5054675;28;20025;-80
2023/11/10 10:33:12;;;;;;;6.40;1.30;;;;;;;;;;5038484;28;20508;-79
2023/11/10 10:35:39;;;;;;;3.67;0.93;;;;;;;;;;5055777;28;20016;-79
2023/11/10 10:38:04;;;;;;;7.72;1.67;;;;;;;;;;5054578;28;20477;-79
2023/11/10 10:40:30;;;;;;;4.00;1.03;;;;;;;;;;5055785;28;20079;-79
2023/11/10 10:42:58;;;;;;;6.05;0.82;;;;;;;;;;5055697;28;20278;-79
2023/11/10 10:45:25;;;;;;;8.75;1.23;;;;;;;;;;5054467;28;20108;-80
2023/11/10 10:47:51;;;;;;;6.80;0.95;;;;;;;;;;5054459;28;20017;-79
2023/11/10 10:50:16;;;;;;;4.63;0.80;;;;;;;;;;5055639;28;20424;-80
2023/11/10 10:52:42;;;;;;;3.85;0.98;;;;;;;;;;5055616;28;20103;-80
2023/11/10 10:55:09;;;;;;;4.05;0.73;;;;;;;;;;5054306;28;20017;-80
2023/11/10 10:57:34;;;;;;;8.68;1.05;;;;;;;;;;5055493;28;20017;-80
2023/11/10 11:00:02;;;;;;;5.53;1.10;;;;;;;;;;5054265;28;20374;-79
2023/11/10 11:02:27;;;;;;;7.82;1.10;;;;;;;;;;5055301;28;20013;-80
2023/11/10 11:04:59;;;;;;;6.15;0.75;;;;;;;;;;5054132;28;20020;-80
2023/11/10 11:07:25;;;;;;;3.25;0.60;;;;;;;;;;5055399;28;20025;-79
2023/11/10 11:10:06;;;;;;;5.30;0.90;;;;;;;;;;5055351;28;20024;-79
2023/11/10 11:12:53;;;;;;;4.87;1.23;;;;;;;;;;5054041;28;20264;-79
2023/11/10 11:15:25;;;;;;;7.90;1.25;;;;;;;;;;5053905;28;20772;-80
2023/11/10 11:18:04;;;;;;;3.28;0.90;;;;;;;;;;5055405;28;20380;-80
2023/11/10 11:20:30;;;;;;;5.28;1.02;;;;;;;;;;5053837;28;20021;-79
2023/11/10 11:22:55;;;;;;;8.95;1.50;;;;;;;;;;5053706;28;20037;-80
2023/11/10 11:25:20;;;;;;;7.13;1.05;;;;;;;;;;5053558;28;20036;-79
2023/11/10 11:27:55;;;;;;;3.73;0.70;;;;;;;;;;5054840;28;20024;-80
2023/11/10 11:30:20;;;;;;;8.07;0.95;;;;;;;;;;5053412;28;20021;-80
2023/11/10 11:32:46;;;;;;;5.60;1.00;;;;;;;;;;5053214;28;20035;-80
2023/11/10 11:35:15;;;;;;;7.43;0.82;;;;;;;;;;5052675;28;20284;-80
2023/11/10 11:37:44;;;;;;;6.90;1.38;;;;;;;;;;5053066;28;20476;-80
2023/11/10 11:40:11;;;;;;;8.93;1.67;;;;;;;;;;5045488;28;20017;-80
2023/11/10 11:42:41;;;;;;;7.85;0.90;;;;;;;;;;5054255;28;20029;-80
2023/11/10 11:45:10;;;;;;;7.72;1.15;;;;;;;;;;5052837;28;20074;-80
2023/11/10 11:47:35;;;;;;;5.63;1.45;;;;;;;;;;5053001;28;20108;-80
2023/11/10 11:50:01;;;;;;;7.33;1.10;;;;;;;;;;5052684;28;20508;-80
2023/11/10 11:52:27;;;;;;;7.40;1.05;;;;;;;;;;5052849;28;20258;-80
2023/11/10 11:54:54;;;;;;;4.95;0.95;;;;;;;;;;5053996;28;20031;-80
2023/11/10 11:57:19;;;;;;;8.52;1.23;;;;;;;;;;5053850;28;20013;-80
2023/11/10 11:59:44;;;;;;;9.75;1.00;;;;;;;;;;5052699;28;20035;-80
2023/11/10 12:02:10;;;;;;;4.23;0.63;;;;;;;;;;5053638;28;20416;-80
2023/11/10 12:04:36;;;;;;;6.18;1.00;;;;;;;;;;5052594;28;20349;-80
2023/11/10 12:07:02;;;;;;;8.48;1.42;;;;;;;;;;5052525;28;20115;-80
2023/11/10 12:09:27;;;;;;;3.72;0.82;;;;;;;;;;5052576;28;20021;-80
2023/11/10 12:11:52;;;;;;;6.32;0.98;;;;;;;;;;5052340;28;20111;-80
2023/11/10 12:14:20;;;;;;;6.97;1.65;;;;;;;;;;5053513;28;20048;-80
2023/11/10 12:16:46;;;;;;;5.63;1.17;;;;;;;;;;5052257;28;20481;-80
2023/11/10 12:19:12;;;;;;;4.22;0.90;;;;;;;;;;5046247;28;20029;-80
2023/11/10 12:21:38;;;;;;;5.10;1.15;;;;;;;;;;5052634;28;20062;-80
2023/11/10 12:24:04;;;;;;;10.07;0.90;;;;;;;;;;5061857;28;20120;-80
2023/11/10 12:26:32;;;;;;;4.20;0.90;;;;;;;;;;5077016;28;20376;-80
2023/11/10 12:28:58;;;;;;;8.27;1.05;;;;;;;;;;5069519;28;20017;-80
2023/11/10 12:31:23;;;;;;;4.43;1.07;;;;;;;;;;5076903;28;20353;-80
2023/11/10 12:33:49;;;;;;;9.77;1.42;;;;;;;;;;5056869;28;20261;-80
2023/11/10 12:36:15;;;;;;;7.13;1.13;;;;;;;;;;5072938;28;20028;-80
2023/11/10 12:38:40;;;;;;;8.77;1.15;;;;;;;;;;5072429;28;20733;-80
2023/11/10 12:41:09;;;;;;;5.43;1.10;;;;;;;;;;5054809;28;20024;-80
2023/11/10 12:43:34;;;;;;;9.27;1.10;;;;;;;;;;5072645;28;20020;-80
2023/11/10 12:46:09;;;;;;;4.22;1.00;;;;;;;;;;5054907;28;20358;-80
2023/11/10 12:48:35;;;;;;;11.10;1.20;;;;;;;;;;5071433;28;20469;-80
2023/11/10 12:51:02;;;;;;;9.70;0.82;;;;;;;;;;5054812;28;20469;-80
2023/11/10 12:53:28;;;;;;;4.45;0.98;;;;;;;;;;5054530;28;20019;-80
2023/11/10 12:55:53;;;;;;;7.57;1.23;;;;;;;;;;5054553;28;20111;-80
2023/11/10 12:58:18;;;;;;;9.02;1.13;;;;;;;;;;5054415;28;20307;-80
2023/11/10 13:00:44;;;;;;;6.95;1.05;;;;;;;;;;5072651;28;20016;-80
2023/11/10 13:03:12;;;;;;;9.32;1.27;;;;;;;;;;5077254;28;20028;-80
2023/11/10 13:05:37;;;;;;;6.40;1.20;;;;;;;;;;5073391;28;20051;-81
2023/11/10 13:08:03;;;;;;;4.97;1.30;;;;;;;;;;5054421;28;20066;-80
2023/11/10 13:10:31;;;;;;;6.28;1.33;;;;;;;;;;5054655;28;20020;-80
2023/11/10 13:12:56;;;;;;;10.10;1.38;;;;;;;;;;5071865;28;20032;-80
2023/11/10 13:15:22;;;;;;;4.80;0.67;;;;;;;;;;5054463;28;20021;-80
2023/11/10 13:17:49;;;;;;;9.18;1.42;;;;;;;;;;5072259;28;20276;-80
2023/11/10 13:20:15;;;;;;;6.20;0.90;;;;;;;;;;5054374;28;20388;-79
2023/11/10 13:22:40;;;;;;;7.57;1.08;;;;;;;;;;5072969;28;20020;-80
2023/11/10 13:25:06;;;;;;;6.00;1.03;;;;;;;;;;5054964;28;20493;-80
2023/11/10 13:27:31;;;;;;;12.18;1.33;;;;;;;;;;5073122;28;20012;-80
2023/11/10 13:30:00;;;;;;;2.47;0.90;;;;;;;;;;5073082;28;20384;-80
2023/11/10 13:32:26;;;;;;;6.43;1.13;;;;;;;;;;5054988;28;20065;-80
2023/11/10 13:34:52;;;;;;;10.80;1.40;;;;;;;;;;5055057;28;20472;-80
2023/11/10 13:37:18;;;;;;;4.85;0.90;;;;;;;;;;5073087;28;20272;-80
2023/11/10 13:39:43;;;;;;;8.48;1.27;;;;;;;;;;5072125;28;20464;-80
2023/11/10 13:42:10;;;;;;;5.72;1.23;;;;;;;;;;5054818;28;20025;-80
2023/11/10 13:44:35;;;;;;;6.88;1.30;;;;;;;;;;5054946;28;20107;-80
2023/11/10 13:47:01;;;;;;;10.27;1.58;;;;;;;;;;5054898;28;20099;-80
2023/11/10 13:49:26;;;;;;;9.68;1.55;;;;;;;;;;5054950;28;20013;-80
2023/11/10 13:51:51;;;;;;;10.27;1.27;;;;;;;;;;5054886;28;20029;-80
2023/11/10 13:54:17;;;;;;;19.88;4.85;;;;;;;;;;5054934;28;20330;-80
2023/11/10 13:56:42;;;;;;;11.80;1.33;;;;;;;;;;5054835;28;20028;-80
2023/11/10 13:59:07;;;;;;;8.30;1.42;;;;;;;;;;5073627;28;20020;-80
2023/11/10 14:01:32;;;;;;;9.05;1.25;;;;;;;;;;5058630;28;20115;-80
2023/11/10 14:03:58;;;;;;;8.50;1.37;;;;;;;;;;5058614;28;20384;-80
2023/11/10 14:06:25;;;;;;;9.10;0.90;;;;;;;;;;5076524;28;20689;-80
2023/11/10 14:08:50;;;;;;;7.22;0.90;;;;;;;;;;5058534;28;20664;-80
2023/11/10 14:11:16;;;;;;;4.70;1.07;;;;;;;;;;5058406;28;20032;-80
2023/11/10 14:13:43;;;;;;;7.20;1.57;;;;;;;;;;5076338;28;20303;-80
2023/11/10 14:16:09;;;;;;;5.53;1.33;;;;;;;;;;5058379;28;20259;-80
2023/11/10 14:18:36;;;;;;;2.63;1.05;;;;;;;;;;5058332;28;20103;-80
2023/11/10 14:21:01;;;;;;;9.57;1.90;;;;;;;;;;5058226;28;20017;-80
2023/11/10 14:23:26;;;;;;;6.93;0.80;;;;;;;;;;5076082;28;20024;-80
2023/11/10 14:25:54;;;;;;;4.23;1.33;;;;;;;;;;5075965;28;20060;-80
2023/11/10 14:28:20;;;;;;;5.07;0.95;;;;;;;;;;5076107;28;20021;-80
2023/11/10 14:30:46;;;;;;;6.70;1.35;;;;;;;;;;5058090;28;20043;-80
2023/11/10 14:33:13;;;;;;;6.60;1.63;;;;;;;;;;5076051;28;20109;-80
2023/11/10 14:35:38;;;;;;;7.15;1.45;;;;;;;;;;5057881;28;20022;-80